Agua de Oro, Argentina
Current Conditions -  °F | °C
As of 4:00 AM on Saturday 29 Nov 2014 (Local Time) from SACO Reporting Station
Scattered Clouds Scattered Clouds  
Wind Chill: 68°   Ceiling: Unl
Heat Index: 68°   Visibility: 6mi
Dew Point: 57°   Wind: 7mph
Humidity: 68%   Direction: 360°N
Pressure: 29.74"   Gusts: NA
Location:  31.07°S, 64.3°W
Report Text: SACO 290700Z 36006KT 9999 FEW030 SCT10020/14 Q1007
Loading
Personal Weather Stations






























Interactive Weather Map New forecast layout! Learn more

10-Day Weather Forecast

Advertisements
Track Severe Weather on mobile